sensor_id;sensor_type;location;lat;lon;timestamp;P1;durP1;ratioP1;P2;durP2;ratioP2
50880;SDS011;36858;47.832;-3.800;2023-02-15T05:21:39;12.23;;;10.47;;
50880;SDS011;36858;47.832;-3.800;2023-02-15T05:24:06;11.90;;;9.67;;
50880;SDS011;36858;47.832;-3.800;2023-02-15T05:26:52;11.23;;;10.03;;
50880;SDS011;36858;47.832;-3.800;2023-02-15T05:29:37;13.07;;;10.37;;
50880;SDS011;36858;47.832;-3.800;2023-02-15T05:32:04;11.37;;;10.00;;
50880;SDS011;36858;47.832;-3.800;2023-02-15T05:34:31;10.00;;;8.90;;
50880;SDS011;36858;47.832;-3.800;2023-02-15T05:36:58;10.27;;;8.93;;
50880;SDS011;36858;47.832;-3.800;2023-02-15T05:39:25;10.50;;;8.87;;
50880;SDS011;36858;47.832;-3.800;2023-02-15T05:41:52;10.43;;;9.20;;
50880;SDS011;36858;47.832;-3.800;2023-02-15T05:44:19;13.73;;;8.93;;
50880;SDS011;36858;47.832;-3.800;2023-02-15T05:46:46;9.73;;;8.60;;
50880;SDS011;36858;47.832;-3.800;2023-02-15T05:49:12;12.73;;;9.27;;
50880;SDS011;36858;47.832;-3.800;2023-02-15T05:51:39;9.60;;;8.60;;
50880;SDS011;36858;47.832;-3.800;2023-02-15T05:54:06;11.37;;;9.60;;
50880;SDS011;36858;47.832;-3.800;2023-02-15T05:56:33;9.50;;;8.53;;
50880;SDS011;36858;47.832;-3.800;2023-02-15T05:59:00;10.87;;;9.10;;
50880;SDS011;36858;47.832;-3.800;2023-02-15T06:01:27;10.73;;;9.40;;
50880;SDS011;36858;47.832;-3.800;2023-02-15T06:03:54;11.63;;;9.50;;
50880;SDS011;36858;47.832;-3.800;2023-02-15T06:06:22;10.83;;;9.53;;
50880;SDS011;36858;47.832;-3.800;2023-02-15T06:08:49;10.53;;;8.73;;
50880;SDS011;36858;47.832;-3.800;2023-02-15T06:11:16;11.60;;;9.93;;
50880;SDS011;36858;47.832;-3.800;2023-02-15T06:13:43;10.43;;;9.40;;
50880;SDS011;36858;47.832;-3.800;2023-02-15T06:16:10;10.37;;;9.17;;
50880;SDS011;36858;47.832;-3.800;2023-02-15T06:18:37;11.33;;;9.57;;
50880;SDS011;36858;47.832;-3.800;2023-02-15T06:21:04;9.93;;;8.90;;
50880;SDS011;36858;47.832;-3.800;2023-02-15T06:23:31;12.00;;;9.23;;
50880;SDS011;36858;47.832;-3.800;2023-02-15T06:25:58;10.73;;;8.70;;
50880;SDS011;36858;47.832;-3.800;2023-02-15T06:28:25;11.67;;;9.10;;
50880;SDS011;36858;47.832;-3.800;2023-02-15T06:30:52;12.77;;;9.67;;
50880;SDS011;36858;47.832;-3.800;2023-02-15T06:33:19;11.17;;;9.23;;
50880;SDS011;36858;47.832;-3.800;2023-02-15T06:35:46;10.70;;;8.90;;
50880;SDS011;36858;47.832;-3.800;2023-02-15T06:38:13;13.83;;;8.87;;
50880;SDS011;36858;47.832;-3.800;2023-02-15T06:40:40;11.43;;;9.50;;
50880;SDS011;36858;47.832;-3.800;2023-02-15T06:43:07;12.17;;;10.27;;
50880;SDS011;36858;47.832;-3.800;2023-02-15T06:45:33;10.07;;;9.07;;
50880;SDS011;36858;47.832;-3.800;2023-02-15T06:48:00;12.67;;;9.17;;
50880;SDS011;36858;47.832;-3.800;2023-02-15T06:50:27;10.27;;;9.03;;
50880;SDS011;36858;47.832;-3.800;2023-02-15T06:52:57;11.67;;;8.93;;
50880;SDS011;36858;47.832;-3.800;2023-02-15T06:55:25;12.27;;;9.20;;
50880;SDS011;36858;47.832;-3.800;2023-02-15T06:57:52;12.00;;;10.03;;
50880;SDS011;36858;47.832;-3.800;2023-02-15T07:00:18;12.80;;;9.40;;
50880;SDS011;36858;47.832;-3.800;2023-02-15T07:02:45;10.77;;;8.90;;
50880;SDS011;36858;47.832;-3.800;2023-02-15T07:05:12;11.73;;;9.63;;
50880;SDS011;36858;47.832;-3.800;2023-02-15T07:07:39;11.73;;;10.00;;
50880;SDS011;36858;47.832;-3.800;2023-02-15T07:10:06;12.40;;;9.73;;
50880;SDS011;36858;47.832;-3.800;2023-02-15T07:12:33;14.90;;;10.33;;
50880;SDS011;36858;47.832;-3.800;2023-02-15T07:15:17;13.97;;;10.00;;
50880;SDS011;36858;47.832;-3.800;2023-02-15T07:17:47;11.50;;;9.40;;
50880;SDS011;36858;47.832;-3.800;2023-02-15T07:20:21;15.73;;;11.17;;
50880;SDS011;36858;47.832;-3.800;2023-02-15T07:22:49;21.00;;;10.77;;
50880;SDS011;36858;47.832;-3.800;2023-02-15T07:25:17;13.57;;;10.20;;
50880;SDS011;36858;47.832;-3.800;2023-02-15T07:27:44;13.40;;;9.60;;
50880;SDS011;36858;47.832;-3.800;2023-02-15T07:30:13;15.77;;;10.40;;
50880;SDS011;36858;47.832;-3.800;2023-02-15T07:32:41;14.83;;;9.33;;
50880;SDS011;36858;47.832;-3.800;2023-02-15T07:35:30;14.03;;;9.93;;
50880;SDS011;36858;47.832;-3.800;2023-02-15T07:37:57;17.77;;;11.20;;
50880;SDS011;36858;47.832;-3.800;2023-02-15T07:40:24;15.07;;;9.97;;
50880;SDS011;36858;47.832;-3.800;2023-02-15T07:42:51;12.97;;;10.30;;
50880;SDS011;36858;47.832;-3.800;2023-02-15T07:45:21;12.00;;;9.60;;
50880;SDS011;36858;47.832;-3.800;2023-02-15T07:47:48;15.30;;;10.37;;
50880;SDS011;36858;47.832;-3.800;2023-02-15T07:50:15;14.97;;;9.87;;
50880;SDS011;36858;47.832;-3.800;2023-02-15T07:52:42;14.20;;;10.60;;
50880;SDS011;36858;47.832;-3.800;2023-02-15T07:55:09;13.07;;;9.67;;
50880;SDS011;36858;47.832;-3.800;2023-02-15T07:57:42;15.40;;;10.23;;
50880;SDS011;36858;47.832;-3.800;2023-02-15T08:00:11;14.30;;;9.97;;
50880;SDS011;36858;47.832;-3.800;2023-02-15T08:02:39;11.23;;;9.93;;
50880;SDS011;36858;47.832;-3.800;2023-02-15T08:05:06;11.50;;;9.73;;
50880;SDS011;36858;47.832;-3.800;2023-02-15T08:07:33;13.93;;;11.10;;
50880;SDS011;36858;47.832;-3.800;2023-02-15T08:10:00;12.50;;;9.97;;
50880;SDS011;36858;47.832;-3.800;2023-02-15T08:12:27;14.43;;;10.00;;
50880;SDS011;36858;47.832;-3.800;2023-02-15T08:14:54;12.17;;;9.67;;
50880;SDS011;36858;47.832;-3.800;2023-02-15T08:17:21;11.23;;;9.97;;
50880;SDS011;36858;47.832;-3.800;2023-02-15T08:19:48;13.53;;;10.10;;
50880;SDS011;36858;47.832;-3.800;2023-02-15T08:22:15;14.90;;;11.00;;
50880;SDS011;36858;47.832;-3.800;2023-02-15T08:24:42;11.73;;;9.90;;
50880;SDS011;36858;47.832;-3.800;2023-02-15T08:27:09;14.10;;;10.03;;
50880;SDS011;36858;47.832;-3.800;2023-02-15T08:29:37;12.10;;;10.03;;
50880;SDS011;36858;47.832;-3.800;2023-02-15T08:32:07;13.17;;;10.80;;
50880;SDS011;36858;47.832;-3.800;2023-02-15T08:34:37;19.20;;;12.03;;
50880;SDS011;36858;47.832;-3.800;2023-02-15T08:37:06;12.90;;;10.63;;
50880;SDS011;36858;47.832;-3.800;2023-02-15T08:39:33;12.67;;;10.73;;
50880;SDS011;36858;47.832;-3.800;2023-02-15T08:42:00;14.30;;;9.80;;
50880;SDS011;36858;47.832;-3.800;2023-02-15T08:44:27;15.73;;;11.60;;
50880;SDS011;36858;47.832;-3.800;2023-02-15T08:46:54;14.40;;;10.63;;
50880;SDS011;36858;47.832;-3.800;2023-02-15T08:49:21;14.30;;;11.43;;
50880;SDS011;36858;47.832;-3.800;2023-02-15T08:51:49;15.67;;;12.37;;
50880;SDS011;36858;47.832;-3.800;2023-02-15T08:54:20;14.00;;;11.23;;
50880;SDS011;36858;47.832;-3.800;2023-02-15T08:56:48;16.17;;;11.73;;
50880;SDS011;36858;47.832;-3.800;2023-02-15T08:59:16;14.37;;;11.53;;
50880;SDS011;36858;47.832;-3.800;2023-02-15T09:01:44;12.77;;;10.30;;
50880;SDS011;36858;47.832;-3.800;2023-02-15T09:04:13;15.03;;;11.63;;
50880;SDS011;36858;47.832;-3.800;2023-02-15T09:06:42;13.73;;;11.57;;
50880;SDS011;36858;47.832;-3.800;2023-02-15T09:09:13;12.60;;;10.90;;
50880;SDS011;36858;47.832;-3.800;2023-02-15T09:11:42;14.90;;;11.77;;
50880;SDS011;36858;47.832;-3.800;2023-02-15T09:14:11;12.87;;;11.57;;
50880;SDS011;36858;47.832;-3.800;2023-02-15T09:16:43;15.13;;;11.47;;
50880;SDS011;36858;47.832;-3.800;2023-02-15T09:19:12;14.67;;;11.37;;
50880;SDS011;36858;47.832;-3.800;2023-02-15T09:21:39;13.47;;;11.57;;
50880;SDS011;36858;47.832;-3.800;2023-02-15T09:24:11;15.43;;;11.97;;
50880;SDS011;36858;47.832;-3.800;2023-02-15T09:26:40;13.37;;;10.97;;
50880;SDS011;36858;47.832;-3.800;2023-02-15T09:29:08;14.20;;;11.23;;
50880;SDS011;36858;47.832;-3.800;2023-02-15T09:31:37;14.23;;;11.57;;
50880;SDS011;36858;47.832;-3.800;2023-02-15T09:34:14;14.53;;;11.70;;
50880;SDS011;36858;47.832;-3.800;2023-02-15T09:36:45;15.23;;;10.93;;
50880;SDS011;36858;47.832;-3.800;2023-02-15T09:55:57;15.10;;;11.80;;
50880;SDS011;36858;47.832;-3.800;2023-02-15T10:15:00;17.27;;;14.10;;
50880;SDS011;36858;47.832;-3.800;2023-02-15T10:28:35;21.70;;;14.47;;
50880;SDS011;36858;47.832;-3.800;2023-02-15T10:31:19;19.87;;;14.07;;
50880;SDS011;36858;47.832;-3.800;2023-02-15T10:34:01;19.40;;;12.63;;
50880;SDS011;36858;47.832;-3.800;2023-02-15T11:01:29;17.60;;;9.97;;
50880;SDS011;36858;47.832;-3.800;2023-02-15T11:06:44;12.20;;;8.90;;
50880;SDS011;36858;47.832;-3.800;2023-02-15T11:09:17;14.03;;;9.77;;
50880;SDS011;36858;47.832;-3.800;2023-02-15T11:11:48;11.07;;;9.37;;
50880;SDS011;36858;47.832;-3.800;2023-02-15T11:17:14;18.80;;;10.37;;
50880;SDS011;36858;47.832;-3.800;2023-02-15T11:20:08;12.60;;;9.40;;
50880;SDS011;36858;47.832;-3.800;2023-02-15T11:22:44;12.63;;;9.63;;
50880;SDS011;36858;47.832;-3.800;2023-02-15T11:25:18;15.83;;;10.20;;
50880;SDS011;36858;47.832;-3.800;2023-02-15T11:27:54;14.53;;;9.43;;
50880;SDS011;36858;47.832;-3.800;2023-02-15T11:30:23;16.53;;;9.97;;
50880;SDS011;36858;47.832;-3.800;2023-02-15T11:32:52;13.73;;;10.03;;
50880;SDS011;36858;47.832;-3.800;2023-02-15T11:35:24;15.30;;;10.23;;
50880;SDS011;36858;47.832;-3.800;2023-02-15T11:38:12;12.40;;;9.40;;
50880;SDS011;36858;47.832;-3.800;2023-02-15T11:40:58;14.37;;;9.10;;
50880;SDS011;36858;47.832;-3.800;2023-02-15T11:43:43;12.87;;;9.80;;
50880;SDS011;36858;47.832;-3.800;2023-02-15T11:46:14;21.67;;;10.50;;
50880;SDS011;36858;47.832;-3.800;2023-02-15T11:48:41;15.23;;;9.23;;
50880;SDS011;36858;47.832;-3.800;2023-02-15T11:51:09;12.27;;;9.13;;
50880;SDS011;36858;47.832;-3.800;2023-02-15T11:53:39;14.77;;;9.37;;
50880;SDS011;36858;47.832;-3.800;2023-02-15T11:56:12;12.10;;;9.93;;
50880;SDS011;36858;47.832;-3.800;2023-02-15T11:58:43;15.60;;;9.47;;
50880;SDS011;36858;47.832;-3.800;2023-02-15T12:06:24;15.63;;;9.80;;
50880;SDS011;36858;47.832;-3.800;2023-02-15T12:08:55;15.37;;;9.67;;
50880;SDS011;36858;47.832;-3.800;2023-02-15T12:11:50;15.70;;;10.60;;
50880;SDS011;36858;47.832;-3.800;2023-02-15T12:14:17;17.63;;;9.70;;
50880;SDS011;36858;47.832;-3.800;2023-02-15T12:16:47;12.80;;;9.23;;
50880;SDS011;36858;47.832;-3.800;2023-02-15T12:19:59;13.60;;;9.37;;
50880;SDS011;36858;47.832;-3.800;2023-02-15T12:22:18;16.17;;;9.30;;
50880;SDS011;36858;47.832;-3.800;2023-02-15T12:24:47;17.37;;;9.20;;
50880;SDS011;36858;47.832;-3.800;2023-02-15T12:27:16;13.90;;;10.07;;
50880;SDS011;36858;47.832;-3.800;2023-02-15T12:29:49;11.67;;;9.33;;
50880;SDS011;36858;47.832;-3.800;2023-02-15T12:32:19;16.13;;;9.17;;
50880;SDS011;36858;47.832;-3.800;2023-02-15T12:34:50;12.63;;;9.40;;
50880;SDS011;36858;47.832;-3.800;2023-02-15T12:37:23;14.70;;;9.43;;
50880;SDS011;36858;47.832;-3.800;2023-02-15T12:39:54;13.83;;;9.60;;
50880;SDS011;36858;47.832;-3.800;2023-02-15T12:42:22;12.00;;;9.10;;
50880;SDS011;36858;47.832;-3.800;2023-02-15T12:44:54;12.70;;;9.67;;
50880;SDS011;36858;47.832;-3.800;2023-02-15T12:47:26;14.20;;;9.40;;
50880;SDS011;36858;47.832;-3.800;2023-02-15T12:52:49;10.03;;;8.97;;
50880;SDS011;36858;47.832;-3.800;2023-02-15T12:55:19;10.67;;;9.00;;
50880;SDS011;36858;47.832;-3.800;2023-02-15T12:57:49;14.93;;;9.00;;
50880;SDS011;36858;47.832;-3.800;2023-02-15T13:00:31;13.93;;;8.80;;
50880;SDS011;36858;47.832;-3.800;2023-02-15T13:02:58;13.60;;;8.83;;
50880;SDS011;36858;47.832;-3.800;2023-02-15T13:05:28;14.77;;;9.40;;
50880;SDS011;36858;47.832;-3.800;2023-02-15T13:08:17;12.17;;;8.63;;
50880;SDS011;36858;47.832;-3.800;2023-02-15T13:13:27;14.93;;;9.10;;
50880;SDS011;36858;47.832;-3.800;2023-02-15T13:16:00;10.57;;;7.83;;
50880;SDS011;36858;47.832;-3.800;2023-02-15T13:18:34;15.17;;;9.37;;
50880;SDS011;36858;47.832;-3.800;2023-02-15T13:21:09;14.43;;;8.70;;
50880;SDS011;36858;47.832;-3.800;2023-02-15T13:23:38;15.83;;;8.90;;
50880;SDS011;36858;47.832;-3.800;2023-02-15T13:26:10;13.13;;;9.17;;
50880;SDS011;36858;47.832;-3.800;2023-02-15T13:28:42;12.93;;;8.70;;
50880;SDS011;36858;47.832;-3.800;2023-02-15T13:31:17;10.73;;;8.17;;
50880;SDS011;36858;47.832;-3.800;2023-02-15T13:33:56;11.57;;;8.33;;
50880;SDS011;36858;47.832;-3.800;2023-02-15T13:47:04;10.77;;;7.63;;
50880;SDS011;36858;47.832;-3.800;2023-02-15T13:54:48;52.90;;;10.07;;
50880;SDS011;36858;47.832;-3.800;2023-02-15T13:58:01;24.37;;;7.93;;
50880;SDS011;36858;47.832;-3.800;2023-02-15T14:00:16;18.60;;;9.03;;
50880;SDS011;36858;47.832;-3.800;2023-02-15T14:05:34;9.90;;;8.23;;
50880;SDS011;36858;47.832;-3.800;2023-02-15T14:11:26;12.00;;;8.93;;
50880;SDS011;36858;47.832;-3.800;2023-02-15T14:20:03;11.93;;;7.40;;
50880;SDS011;36858;47.832;-3.800;2023-02-15T14:22:42;11.50;;;8.07;;
50880;SDS011;36858;47.832;-3.800;2023-02-15T14:28:12;12.17;;;7.97;;
50880;SDS011;36858;47.832;-3.800;2023-02-15T14:30:44;13.07;;;7.90;;
50880;SDS011;36858;47.832;-3.800;2023-02-15T14:35:40;13.30;;;8.90;;
50880;SDS011;36858;47.832;-3.800;2023-02-15T14:56:44;12.33;;;9.17;;
50880;SDS011;36858;47.832;-3.800;2023-02-15T15:01:38;11.30;;;8.97;;
50880;SDS011;36858;47.832;-3.800;2023-02-15T15:04:06;12.17;;;9.47;;
50880;SDS011;36858;47.832;-3.800;2023-02-15T15:06:36;10.20;;;8.87;;
50880;SDS011;36858;47.832;-3.800;2023-02-15T15:11:48;12.90;;;9.07;;
50880;SDS011;36858;47.832;-3.800;2023-02-15T15:14:37;13.10;;;8.53;;
50880;SDS011;36858;47.832;-3.800;2023-02-15T15:17:04;15.23;;;9.90;;
50880;SDS011;36858;47.832;-3.800;2023-02-15T15:22:21;13.20;;;9.50;;
50880;SDS011;36858;47.832;-3.800;2023-02-15T15:25:03;12.10;;;8.83;;
50880;SDS011;36858;47.832;-3.800;2023-02-15T15:27:41;12.23;;;9.47;;
50880;SDS011;36858;47.832;-3.800;2023-02-15T15:49:34;9.13;;;8.10;;
50880;SDS011;36858;47.832;-3.800;2023-02-15T15:52:17;12.73;;;7.83;;
50880;SDS011;36858;47.832;-3.800;2023-02-15T15:54:46;10.97;;;8.13;;
50880;SDS011;36858;47.832;-3.800;2023-02-15T16:00:22;9.30;;;6.97;;
50880;SDS011;36858;47.832;-3.800;2023-02-15T16:02:55;10.20;;;8.07;;
50880;SDS011;36858;47.832;-3.800;2023-02-15T16:05:22;10.03;;;7.90;;
50880;SDS011;36858;47.832;-3.800;2023-02-15T16:07:49;8.77;;;7.30;;
50880;SDS011;36858;47.832;-3.800;2023-02-15T16:10:20;9.87;;;8.60;;
50880;SDS011;36858;47.832;-3.800;2023-02-15T16:12:48;11.57;;;7.63;;
50880;SDS011;36858;47.832;-3.800;2023-02-15T16:15:17;11.40;;;8.43;;
50880;SDS011;36858;47.832;-3.800;2023-02-15T16:17:54;10.23;;;7.63;;
50880;SDS011;36858;47.832;-3.800;2023-02-15T16:20:26;17.20;;;8.77;;
50880;SDS011;36858;47.832;-3.800;2023-02-15T16:28:52;11.20;;;7.97;;
50880;SDS011;36858;47.832;-3.800;2023-02-15T16:31:21;11.67;;;7.97;;
50880;SDS011;36858;47.832;-3.800;2023-02-15T16:33:51;13.90;;;8.87;;
50880;SDS011;36858;47.832;-3.800;2023-02-15T16:36:26;12.50;;;7.97;;
50880;SDS011;36858;47.832;-3.800;2023-02-15T16:41:22;9.23;;;7.47;;
50880;SDS011;36858;47.832;-3.800;2023-02-15T16:43:51;9.53;;;7.57;;
50880;SDS011;36858;47.832;-3.800;2023-02-15T16:49:04;12.13;;;7.60;;
50880;SDS011;36858;47.832;-3.800;2023-02-15T16:51:33;9.70;;;7.40;;
50880;SDS011;36858;47.832;-3.800;2023-02-15T16:54:03;10.37;;;7.63;;
50880;SDS011;36858;47.832;-3.800;2023-02-15T16:56:32;9.97;;;7.63;;
50880;SDS011;36858;47.832;-3.800;2023-02-15T16:59:00;10.13;;;8.13;;
50880;SDS011;36858;47.832;-3.800;2023-02-15T17:01:29;9.63;;;7.33;;
50880;SDS011;36858;47.832;-3.800;2023-02-15T17:06:59;10.17;;;7.10;;
50880;SDS011;36858;47.832;-3.800;2023-02-15T17:09:43;9.80;;;8.00;;
50880;SDS011;36858;47.832;-3.800;2023-02-15T17:12:44;10.17;;;7.63;;
50880;SDS011;36858;47.832;-3.800;2023-02-15T17:16:08;11.00;;;8.20;;
50880;SDS011;36858;47.832;-3.800;2023-02-15T17:18:03;9.57;;;7.23;;
50880;SDS011;36858;47.832;-3.800;2023-02-15T17:20:48;10.77;;;7.77;;
50880;SDS011;36858;47.832;-3.800;2023-02-15T17:26:00;11.87;;;7.70;;
50880;SDS011;36858;47.832;-3.800;2023-02-15T17:28:29;13.07;;;8.60;;
50880;SDS011;36858;47.832;-3.800;2023-02-15T17:30:57;9.40;;;8.03;;
50880;SDS011;36858;47.832;-3.800;2023-02-15T17:33:26;11.13;;;8.23;;
50880;SDS011;36858;47.832;-3.800;2023-02-15T17:36:07;11.70;;;8.13;;
50880;SDS011;36858;47.832;-3.800;2023-02-15T17:38:38;9.37;;;7.53;;
50880;SDS011;36858;47.832;-3.800;2023-02-15T17:41:06;11.00;;;8.03;;
50880;SDS011;36858;47.832;-3.800;2023-02-15T17:43:33;10.87;;;8.20;;
50880;SDS011;36858;47.832;-3.800;2023-02-15T17:46:00;10.57;;;8.10;;
50880;SDS011;36858;47.832;-3.800;2023-02-15T17:48:31;13.00;;;7.80;;
50880;SDS011;36858;47.832;-3.800;2023-02-15T17:51:00;9.30;;;8.20;;
50880;SDS011;36858;47.832;-3.800;2023-02-15T17:53:28;9.67;;;7.23;;
50880;SDS011;36858;47.832;-3.800;2023-02-15T17:55:55;11.60;;;8.33;;
50880;SDS011;36858;47.832;-3.800;2023-02-15T17:58:22;10.90;;;7.80;;
50880;SDS011;36858;47.832;-3.800;2023-02-15T18:00:56;10.20;;;7.77;;
50880;SDS011;36858;47.832;-3.800;2023-02-15T18:06:31;11.03;;;8.20;;
50880;SDS011;36858;47.832;-3.800;2023-02-15T18:09:17;11.63;;;7.93;;
50880;SDS011;36858;47.832;-3.800;2023-02-15T18:12:26;11.07;;;8.37;;
50880;SDS011;36858;47.832;-3.800;2023-02-15T18:14:53;10.23;;;8.03;;
50880;SDS011;36858;47.832;-3.800;2023-02-15T18:17:25;9.97;;;7.90;;
50880;SDS011;36858;47.832;-3.800;2023-02-15T18:19:54;10.93;;;8.87;;
50880;SDS011;36858;47.832;-3.800;2023-02-15T18:22:25;11.70;;;8.80;;
50880;SDS011;36858;47.832;-3.800;2023-02-15T18:24:53;10.50;;;8.47;;
50880;SDS011;36858;47.832;-3.800;2023-02-15T18:27:20;11.07;;;7.90;;
50880;SDS011;36858;47.832;-3.800;2023-02-15T18:29:47;10.27;;;8.13;;
50880;SDS011;36858;47.832;-3.800;2023-02-15T18:32:16;11.43;;;8.50;;
50880;SDS011;36858;47.832;-3.800;2023-02-15T18:34:45;11.60;;;8.53;;
50880;SDS011;36858;47.832;-3.800;2023-02-15T18:37:14;9.77;;;7.33;;
50880;SDS011;36858;47.832;-3.800;2023-02-15T18:39:47;10.23;;;7.83;;
50880;SDS011;36858;47.832;-3.800;2023-02-15T18:42:19;11.47;;;8.70;;
50880;SDS011;36858;47.832;-3.800;2023-02-15T18:44:52;9.17;;;7.70;;
50880;SDS011;36858;47.832;-3.800;2023-02-15T18:47:21;8.90;;;6.97;;
50880;SDS011;36858;47.832;-3.800;2023-02-15T18:49:48;9.90;;;7.93;;
50880;SDS011;36858;47.832;-3.800;2023-02-15T18:52:18;9.23;;;7.43;;
50880;SDS011;36858;47.832;-3.800;2023-02-15T18:54:47;10.03;;;8.17;;
50880;SDS011;36858;47.832;-3.800;2023-02-15T18:57:17;8.80;;;7.47;;
50880;SDS011;36858;47.832;-3.800;2023-02-15T18:59:44;8.80;;;7.80;;
50880;SDS011;36858;47.832;-3.800;2023-02-15T19:02:12;11.40;;;8.47;;
50880;SDS011;36858;47.832;-3.800;2023-02-15T19:04:40;10.30;;;7.97;;
50880;SDS011;36858;47.832;-3.800;2023-02-15T19:07:11;9.10;;;7.57;;
50880;SDS011;36858;47.832;-3.800;2023-02-15T19:09:49;9.57;;;7.70;;
50880;SDS011;36858;47.832;-3.800;2023-02-15T19:12:18;9.23;;;7.73;;
50880;SDS011;36858;47.832;-3.800;2023-02-15T19:14:45;9.87;;;7.50;;
50880;SDS011;36858;47.832;-3.800;2023-02-15T19:17:13;10.47;;;8.63;;
50880;SDS011;36858;47.832;-3.800;2023-02-15T19:19:42;11.73;;;8.67;;
50880;SDS011;36858;47.832;-3.800;2023-02-15T19:22:13;9.07;;;7.53;;
50880;SDS011;36858;47.832;-3.800;2023-02-15T19:24:45;10.97;;;8.77;;
50880;SDS011;36858;47.832;-3.800;2023-02-15T19:27:20;10.53;;;7.60;;
50880;SDS011;36858;47.832;-3.800;2023-02-15T19:29:50;10.57;;;7.90;;
50880;SDS011;36858;47.832;-3.800;2023-02-15T19:32:18;9.67;;;7.77;;
50880;SDS011;36858;47.832;-3.800;2023-02-15T19:34:45;11.17;;;8.77;;
50880;SDS011;36858;47.832;-3.800;2023-02-15T19:37:55;10.33;;;8.43;;
50880;SDS011;36858;47.832;-3.800;2023-02-15T19:40:03;11.33;;;8.93;;
50880;SDS011;36858;47.832;-3.800;2023-02-15T19:42:31;10.73;;;8.50;;
50880;SDS011;36858;47.832;-3.800;2023-02-15T19:45:00;12.33;;;8.63;;
50880;SDS011;36858;47.832;-3.800;2023-02-15T19:47:26;13.50;;;9.33;;
50880;SDS011;36858;47.832;-3.800;2023-02-15T19:49:53;14.60;;;10.77;;
50880;SDS011;36858;47.832;-3.800;2023-02-15T19:52:26;9.97;;;8.80;;
50880;SDS011;36858;47.832;-3.800;2023-02-15T19:54:53;10.47;;;8.33;;
50880;SDS011;36858;47.832;-3.800;2023-02-15T19:57:20;12.50;;;9.63;;
50880;SDS011;36858;47.832;-3.800;2023-02-15T19:59:47;11.90;;;9.63;;
50880;SDS011;36858;47.832;-3.800;2023-02-15T20:02:14;10.57;;;8.40;;
50880;SDS011;36858;47.832;-3.800;2023-02-15T20:04:44;10.70;;;9.13;;
50880;SDS011;36858;47.832;-3.800;2023-02-15T20:07:21;12.13;;;9.40;;
50880;SDS011;36858;47.832;-3.800;2023-02-15T20:09:51;10.70;;;9.03;;
50880;SDS011;36858;47.832;-3.800;2023-02-15T20:12:20;13.67;;;9.70;;
50880;SDS011;36858;47.832;-3.800;2023-02-15T20:14:51;14.23;;;9.53;;
50880;SDS011;36858;47.832;-3.800;2023-02-15T20:17:18;10.93;;;8.60;;
50880;SDS011;36858;47.832;-3.800;2023-02-15T20:19:45;11.90;;;8.33;;
50880;SDS011;36858;47.832;-3.800;2023-02-15T20:22:18;11.93;;;8.50;;
50880;SDS011;36858;47.832;-3.800;2023-02-15T20:24:47;12.97;;;8.03;;
50880;SDS011;36858;47.832;-3.800;2023-02-15T20:27:15;12.73;;;8.57;;
50880;SDS011;36858;47.832;-3.800;2023-02-15T20:29:43;9.97;;;8.17;;
50880;SDS011;36858;47.832;-3.800;2023-02-15T20:32:10;12.30;;;7.93;;
50880;SDS011;36858;47.832;-3.800;2023-02-15T20:34:37;11.57;;;7.97;;
50880;SDS011;36858;47.832;-3.800;2023-02-15T20:37:04;12.97;;;8.80;;
50880;SDS011;36858;47.832;-3.800;2023-02-15T20:39:32;11.50;;;7.63;;
50880;SDS011;36858;47.832;-3.800;2023-02-15T20:42:00;12.47;;;7.60;;
50880;SDS011;36858;47.832;-3.800;2023-02-15T20:44:29;10.33;;;8.40;;
50880;SDS011;36858;47.832;-3.800;2023-02-15T20:46:57;10.63;;;7.50;;
50880;SDS011;36858;47.832;-3.800;2023-02-15T20:49:26;11.47;;;6.80;;
50880;SDS011;36858;47.832;-3.800;2023-02-15T20:51:53;8.83;;;6.73;;
50880;SDS011;36858;47.832;-3.800;2023-02-15T20:54:22;9.63;;;6.27;;
50880;SDS011;36858;47.832;-3.800;2023-02-15T20:56:51;9.97;;;6.70;;
50880;SDS011;36858;47.832;-3.800;2023-02-15T21:01:48;9.80;;;6.10;;
50880;SDS011;36858;47.832;-3.800;2023-02-15T21:04:17;8.60;;;6.87;;
50880;SDS011;36858;47.832;-3.800;2023-02-15T21:06:46;9.10;;;6.23;;
50880;SDS011;36858;47.832;-3.800;2023-02-15T21:09:13;9.20;;;6.17;;
50880;SDS011;36858;47.832;-3.800;2023-02-15T21:11:44;8.80;;;5.90;;
50880;SDS011;36858;47.832;-3.800;2023-02-15T21:14:16;8.53;;;5.50;;
50880;SDS011;36858;47.832;-3.800;2023-02-15T21:16:44;8.40;;;6.10;;
50880;SDS011;36858;47.832;-3.800;2023-02-15T21:19:19;8.13;;;5.90;;
50880;SDS011;36858;47.832;-3.800;2023-02-15T21:21:48;12.60;;;6.83;;
50880;SDS011;36858;47.832;-3.800;2023-02-15T21:24:26;8.43;;;5.87;;
50880;SDS011;36858;47.832;-3.800;2023-02-15T21:26:54;7.03;;;5.03;;
50880;SDS011;36858;47.832;-3.800;2023-02-15T21:29:24;8.67;;;5.13;;
50880;SDS011;36858;47.832;-3.800;2023-02-15T21:31:52;7.47;;;5.40;;
50880;SDS011;36858;47.832;-3.800;2023-02-15T21:34:19;9.73;;;5.70;;
50880;SDS011;36858;47.832;-3.800;2023-02-15T21:36:46;9.67;;;5.50;;
50880;SDS011;36858;47.832;-3.800;2023-02-15T21:41:47;6.47;;;5.10;;
50880;SDS011;36858;47.832;-3.800;2023-02-15T21:44:34;7.60;;;4.93;;
50880;SDS011;36858;47.832;-3.800;2023-02-15T21:47:23;11.63;;;4.67;;
50880;SDS011;36858;47.832;-3.800;2023-02-15T21:50:19;10.93;;;4.80;;
50880;SDS011;36858;47.832;-3.800;2023-02-15T21:53:06;5.63;;;4.20;;
50880;SDS011;36858;47.832;-3.800;2023-02-15T21:55:36;11.70;;;4.67;;
50880;SDS011;36858;47.832;-3.800;2023-02-15T21:58:03;7.93;;;4.53;;
50880;SDS011;36858;47.832;-3.800;2023-02-15T22:00:31;7.03;;;4.20;;
50880;SDS011;36858;47.832;-3.800;2023-02-15T22:02:59;10.13;;;4.67;;
50880;SDS011;36858;47.832;-3.800;2023-02-15T22:05:28;8.57;;;4.30;;
50880;SDS011;36858;47.832;-3.800;2023-02-15T22:07:56;7.47;;;3.97;;
50880;SDS011;36858;47.832;-3.800;2023-02-15T22:10:25;9.63;;;5.07;;
50880;SDS011;36858;47.832;-3.800;2023-02-15T22:12:55;7.87;;;4.83;;
50880;SDS011;36858;47.832;-3.800;2023-02-15T22:15:22;11.27;;;5.17;;
50880;SDS011;36858;47.832;-3.800;2023-02-15T22:17:52;7.97;;;4.53;;
50880;SDS011;36858;47.832;-3.800;2023-02-15T22:20:19;12.97;;;5.20;;
50880;SDS011;36858;47.832;-3.800;2023-02-15T22:22:48;10.87;;;4.17;;
50880;SDS011;36858;47.832;-3.800;2023-02-15T22:25:17;6.97;;;4.63;;
50880;SDS011;36858;47.832;-3.800;2023-02-15T22:27:53;10.27;;;4.97;;
50880;SDS011;36858;47.832;-3.800;2023-02-15T22:30:24;12.10;;;4.63;;
50880;SDS011;36858;47.832;-3.800;2023-02-15T22:32:52;10.60;;;4.50;;
50880;SDS011;36858;47.832;-3.800;2023-02-15T22:35:24;9.43;;;5.27;;
50880;SDS011;36858;47.832;-3.800;2023-02-15T22:37:52;8.93;;;4.90;;
50880;SDS011;36858;47.832;-3.800;2023-02-15T22:40:19;13.43;;;5.37;;
50880;SDS011;36858;47.832;-3.800;2023-02-15T22:42:49;9.67;;;5.23;;
50880;SDS011;36858;47.832;-3.800;2023-02-15T22:45:24;12.20;;;5.43;;
50880;SDS011;36858;47.832;-3.800;2023-02-15T22:47:54;15.80;;;5.60;;
50880;SDS011;36858;47.832;-3.800;2023-02-15T22:50:23;13.17;;;5.97;;
50880;SDS011;36858;47.832;-3.800;2023-02-15T22:52:52;13.23;;;6.47;;
50880;SDS011;36858;47.832;-3.800;2023-02-15T22:55:20;17.50;;;5.50;;
50880;SDS011;36858;47.832;-3.800;2023-02-15T22:57:50;12.20;;;5.13;;
50880;SDS011;36858;47.832;-3.800;2023-02-15T23:00:19;10.40;;;5.47;;
50880;SDS011;36858;47.832;-3.800;2023-02-15T23:02:52;9.63;;;5.23;;
50880;SDS011;36858;47.832;-3.800;2023-02-15T23:07:47;12.43;;;5.47;;
50880;SDS011;36858;47.832;-3.800;2023-02-15T23:10:15;12.80;;;5.27;;
50880;SDS011;36858;47.832;-3.800;2023-02-15T23:12:53;13.13;;;5.23;;
50880;SDS011;36858;47.832;-3.800;2023-02-15T23:15:41;11.43;;;5.23;;
50880;SDS011;36858;47.832;-3.800;2023-02-15T23:18:19;12.50;;;5.03;;